Ana Sayfa
METAR-TAF:

METAR-TAF

Havaalanları :

Bandırma Havalimanı

Bandırma, Türkiye

Enlem: 40-19N, Boylam: 027-58E, yükseklik: 51 m

METAR: eksik

Saat: 07:42 (04:42 UTC)

Tahmin

Rapor saat 01:40 UTC de 3 saat ve 2 dakika önce yapıldı.
Ayın 27'si saat 03 UTC'den ayın 27'si saat 12 UTC'ye kadar geçerli Tahmin
Rüzgar güney/güneybatıdan 18 kt ve 30 kt'a kadar ani rüzgarlar
Görüş mesafesi 10 km veya daha fazla
1500 m altında bulut yok ve kümülonimbus yok
Dönüşüyor
ayın 27'si saat 05 UTC'den ayın 27'si saat 08 UTC'ye kadar
3500 ft yükseklikte parçalı bulutlu
10000 ft yükseklikte parçalı çok bulutlu

TAF: LTBG 270140Z 2703/2712 21018G30KT CAVOK BECMG 2705/2708 SCT035 BKN100

4.000'den fazla havaalanı için hava durumu gözlemleri ve tahminleri (METAR ve TAF raporları).

Kullanılabilir istasyonlar harita üzerinde sarı ve kırmızı noktalarla gösterilir.

İstasyonun adını görmek için fareyi noktanın üzerinde gezdirin.

Sonrasında hava gözlem ve tahminlerini görmek için tıklayın.

Haritayı değiştirmek için: yaklaştırmak için siyah artı işaretli yeşil düğmeye ve uzaklaştırmak için de eksi işaretli düğmeye hızla tıklayın; bitişik haritalar için yeşil okları kullanın.


METAR-TAF: